Terminal Aerodrome Forecast
Issued by NWS Shreveport, LA

Home | Current Version | Previous Version | Text Only | Print | Product List | Glossary On
Versions: 1 2 3 4 5 6 7 8 9 10 11 12 13 14 15 16 17 18
000
FTUS44 KSHV 251120
TAFMLU
TAF
KMLU 251120Z 2512/2612 00000KT 4SM BR SKC
      TEMPO 2512/2514 3/4SM BR
     FM251400 10003KT P6SM SKC
     FM251600 09005KT P6SM SCT040
     FM260000 07004KT P6SM SCT060
     FM260200 05003KT P6SM SKC=

USA.gov is the U.S. government's official web portal to all federal, state and local government web resources and services.